Weather observations for the past three days for
Sikeston Memorial Municipal Airport
Metric (Imperial)
Date Time (cdt) Wind (kph) Vis. (km) Weather Sky Cond. Temperature (ºC) Relative Humidity Wind Chill (°C) Heat Index (°C) Pressure Precipitation (cm)
Air Dwpt 6 hour altimeter (cm) sea level (mb) 1 hr 3 hr 6 hr
Max. Min.
10 01:35 SW 13 16.09 NULL NULL 18.8 9.5 55% 75.95 0.0
10 01:15 SW 13 16.09 NULL NULL 18.9 9.3 54% 75.92 0.0
10 00:55 SW 9 16.09 NULL NULL 19.7 8.8 26.2 19.7 50% 75.9 0.0
10 00:35 SW 11 16.09 NULL NULL 20.3 8.5 47% 75.9 0.0
10 00:15 SW 11 16.09 NULL NULL 20.6 8.2 45% 75.9 0.0
09 23:55 SW 11 16.09 NULL NULL 21.3 7.6 41% 75.87 0.0
09 23:35 S 13 16.09 NULL NULL 21.9 6.9 38% 75.87 0.0
09 23:15 Vrbl 7 16.09 NULL NULL 21.4 7.5 41% 75.87 0.0
09 22:55 S 7 16.09 NULL NULL 20.3 9.3 49% 75.87 0.0
09 22:35 S 7 16.09 NULL NULL 20.4 9.3 49% 75.87 0.0
09 22:15 S 6 16.09 NULL NULL 20.9 9.2 47% 75.87 0.0
09 21:55 S 7 16.09 NULL NULL 21.8 8.7 43% 75.84 0.0
09 21:35 S 7 16.09 NULL NULL 21.9 9.1 44% 75.84 0.0
09 21:15 S 7 16.09 NULL NULL 21.9 9.9 47% 75.82 0.0
09 20:55 S 7 16.09 NULL NULL 22.6 10 45% 75.79 0.0
09 20:35 S 7 16.09 NULL NULL 22.4 10.3 46% 75.79 0.0
09 20:15 S 9 16.09 NULL NULL 23.2 9.9 43% 75.77 0.0
09 19:55 S 7 16.09 NULL NULL 23.6 9.3 40% 75.74 0.0
09 19:35 S 6 16.09 NULL NULL 24.9 8.3 35% 25 75.72 0.0
09 19:15 S 7 16.09 NULL NULL 25.9 7.8 32% 26 75.72 0.0
09 18:55 SW 9 16.09 NULL NULL 26.6 7.9 28 23.7 31% 26 75.69 0.0
09 18:35 S 11 16.09 NULL NULL 27 8.2 31% 26 75.69 0.0
09 18:15 SW 7 16.09 NULL NULL 27.3 7.4 28% 27 75.69 0.0
09 17:55 SW 7 16.09 NULL NULL 27.4 8.1 30% 27 75.72 0.0
09 17:35 SW 9 16.09 NULL NULL 27.7 8.4 30% 27 75.72 0.0
09 17:15 SW 9 16.09 NULL NULL 27.6 7.3 28% 27 75.72 0.0
09 16:55 Calm 16.09 NULL NULL 27.7 7.5 28% 27 75.69 0.0
09 16:35 Vrbl 6 16.09 NULL NULL 27.7 8.1 29% 27 75.69 0.0
09 16:15 W 9 16.09 NULL NULL 27.4 8.3 30% 27 75.69 0.0
09 15:55 Calm 16.09 NULL NULL 27.6 8.2 29% 27 75.72 0.0
09 15:35 SW 15 16.09 NULL NULL 27.6 10.3 34% 27 75.72 0.0
09 15:15 SW 9 16.09 NULL NULL 27.5 11.1 36% 27 75.74 0.0
09 14:55 Vrbl 11 16.09 NULL NULL 27.5 11.8 38% 27 75.77 0.0
09 14:35 Vrbl 7 16.09 NULL NULL 26.6 11.5 39% 27 75.77 0.0
09 14:15 Vrbl 7 16.09 NULL NULL 26.3 12.5 42% 26 75.79 0.0
09 13:55 Vrbl 7 16.09 NULL NULL 25.2 13.4 48% 26 75.79 0.0
09 13:35 SW 6 16.09 NULL NULL 24.9 13.9 51% 26 75.79 0.0
09 13:15 NW 7 16.09 NULL NULL 24.4 14.2 53% 26 75.79 0.0
09 12:55 Vrbl 6 16.09 NULL NULL 23.3 14.6 24 13 58% 75.82 0.0
09 12:35 Calm 16.09 NULL NULL 23 14.6 59% 75.82 0.0
09 12:15 Vrbl 9 16.09 NULL NULL 22.8 14.7 60% 75.82 0.0
09 11:55 Vrbl 6 16.09 NULL NULL 22.5 15.7 66% 75.82 0.0
09 11:35 Calm 16.09 NULL NULL 21 15.7 72% 75.82 0.0
09 11:15 Vrbl 6 16.09 NULL NULL 20.8 16.6 77% 75.82 0.0
09 10:55 NW 9 16.09 NULL NULL 19.6 16.2 81% 75.84 0.0
09 10:15 W 7 16.09 NULL NULL 18.5 16 85% 75.82 0.0
09 09:55 Calm 16.09 NULL NULL 17.8 16.3 91% 75.82 0.0
09 09:35 W 6 16.09 NULL NULL 17.1 16.5 96% 75.82 0.0
09 09:15 Vrbl 6 16.09 NULL NULL 15.5 15.5 100% 75.82 0.0
09 08:55 W 7 8.05 Fog/Mist NULL 14.5 14.5 100% 75.79 0.0
09 08:35 W 6 4.83 Fog/Mist NULL 14.2 14.2 100% 75.79 0.0
09 08:15 NW 9 0.80 Fog NULL 14.1 14.1 100% 75.77 0.0
09 07:55 NW 9 0.40 Fog NULL 13.7 13.7 100% 75.74 0.0
09 07:35 W 7 0.40 Fog NULL 13.4 13.4 100% 75.74 0.0
09 07:15 NW 9 0.24 Fog NULL 13 13 100% 75.72 0.0
09 06:55 NW 7 16.09 NULL NULL 13.1 13.1 17.6 11.8 100% 75.72 0.0 0.03 0.08
09 06:35 W 7 14.48 NULL NULL 12.5 12.5 100% 75.69 0.0 0.03
09 06:15 W 6 6.44 Fog/Mist NULL 12.2 12.2 100% 75.67 0.0
09 05:55 W 7 16.09 NULL NULL 12.9 12.9 100% 75.67 0.0
09 05:35 W 6 16.09 NULL NULL 12.9 12.9 100% 75.67 0.0
09 05:15 SW 6 4.83 Fog/Mist NULL 11.9 11.9 100% 75.64 0.0
09 04:55 SW 6 11.27 NULL NULL 12.2 12.2 100% 75.62 0.0
09 04:35 SW 6 16.09 NULL NULL 13 13 100% 75.64 0.0
09 04:15 Calm 16.09 NULL NULL 12.8 12.8 100% 75.62 0.0
09 03:55 N 6 16.09 NULL NULL 13 13 100% 75.62 0.0 0.05
09 03:35 Calm 12.87 NULL NULL 13.2 13.2 100% 75.64 0.0
09 03:15 Calm 14.48 NULL NULL 13.6 13.6 100% 75.62 0.0
09 02:55 Calm 16.09 NULL NULL 14 14 100% 75.62 0.0
09 02:35 SW 6 16.09 NULL NULL 14.3 14.3 100% 75.59 0.0
09 02:15 NW 6 16.09 NULL NULL 15.1 14.7 97% 75.64 0.0
09 01:55 SW 11 12.87 Light Rain NULL 15.7 14.9 95% 75.64 0.0 0.05
09 01:35 W 13 8.05 Light Rain Fog/Mist NULL 16 14.8 93% 75.69 0.0 0.05
09 01:15 SW 19 12.87 Light Rain NULL 16.9 14.1 84% 75.67 0.0
09 00:55 SW 17 16.09 NULL NULL 18 11.4 22.5 17.7 66% 75.62 0.0
09 00:35 SW 13 16.09 NULL NULL 18.3 11 63% 75.62 0.0
09 00:15 Vrbl 11 16.09 NULL NULL 18 10.8 63% 75.62 0.0
08 23:55 S 11 16.09 NULL NULL 17.8 11.1 65% 75.62 0.0
08 23:35 S 9 16.09 NULL NULL 18.3 10.9 62% 75.64 0.0
08 23:15 SW 7 14.48 NULL NULL 18.1 10.9 63% 75.67 0.0
08 22:55 S 7 16.09 NULL NULL 18.2 10.7 62% 75.67 0.0
08 22:35 Vrbl 7 14.48 NULL NULL 18 10.7 63% 75.69 0.0
08 22:15 SW 11 14.48 NULL NULL 17.7 11.1 65% 75.72 0.0
08 21:55 SW 7 16.09 NULL NULL 18.4 10.4 60% 75.69 0.0
08 21:35 SW 7 16.09 NULL NULL 18.6 10.2 58% 75.69 0.0
08 21:15 Vrbl 6 16.09 NULL NULL 19.1 9.8 55% 75.67 0.0
08 20:55 S 9 16.09 NULL NULL 19.3 9.3 53% 75.67 0.0
08 20:35 S 7 16.09 NULL NULL 19.6 9 51% 75.64 0.0
08 20:15 S 9 16.09 NULL NULL 19.9 8.8 49% 75.64 0.0
08 19:55 S 9 14.48 NULL NULL 20.7 8.7 46% 75.67 0.0
08 19:35 S 9 16.09 NULL NULL 21.2 8.5 44% 75.67 0.0
08 19:15 S 11 16.09 NULL NULL 22.3 8.4 41% 75.69 0.0
08 18:55 S 13 16.09 NULL NULL 22.8 8.6 24.3 22.1 40% 75.69 0.0
08 18:35 S 15 14.48 NULL NULL 23.2 8.7 40% 75.69 0.0
08 18:15 S 17 16.09 NULL NULL 23.6 7.8 36% 75.72 0.0
08 17:55 S 15 16.09 NULL NULL 23.8 8.5 38% 75.69 0.0
08 17:35 S 11 16.09 NULL NULL 24 9 39% 25 75.72 0.0
08 17:15 S 13 G 30 16.09 NULL NULL 23.9 9.4 40% 25 75.72 0.0
08 16:55 SW 24 16.09 NULL NULL 24.3 10.1 41% 25 75.74 0.0
08 16:35 S 15 16.09 NULL NULL 24.2 9.7 40% 25 75.74 0.0
08 16:15 S 19 G 28 16.09 NULL NULL 24 9.4 40% 25 75.74 0.0
08 15:55 S 15 16.09 NULL NULL 23.9 9.4 40% 25 75.77 0.0
08 15:35 S 15 G 28 16.09 NULL NULL 23.8 9.8 41% 75.79 0.0
08 15:15 S 19 G 33 16.09 NULL NULL 23.6 9.6 41% 75.82 0.0
08 14:55 S 13 16.09 NULL NULL 23.4 10 43% 75.84 0.0
08 14:35 S 19 G 28 16.09 NULL NULL 23.3 10.1 43% 75.84 0.0
08 14:15 S 13 12.87 NULL NULL 23.2 10.6 45% 75.9 0.0
08 13:55 S 15 G 30 16.09 NULL NULL 22.9 10.8 47% 75.92 0.0
08 13:35 SW 17 G 31 16.09 NULL NULL 22.8 10.7 46% 75.95 0.0
08 13:15 S 19 G 37 16.09 NULL NULL 22.2 10.8 49% 75.97 0.0
08 12:55 SW 22 G 31 16.09 NULL NULL 22.1 10.4 22.3 12.7 48% 76 0.0
08 12:35 SW 19 G 28 16.09 NULL NULL 22.3 10.9 49% 76 0.0
08 12:15 S 19 G 26 16.09 NULL NULL 21.5 10.4 49% 76.05 0.0
08 11:55 SW 19 G 35 16.09 NULL NULL 21.3 10.3 50% 76.07 0.0
08 11:35 SW 30 16.09 NULL NULL 21.2 10.2 50% 76.07 0.0
08 11:15 SW 19 G 28 16.09 NULL NULL 20.7 10.5 52% 76.1 0.0
08 10:55 SW 22 16.09 NULL NULL 20.1 9.8 52% 76.12 0.0
08 10:35 S 17 G 30 16.09 NULL NULL 19.9 9.9 53% 76.12 0.0
08 10:15 S 15 G 28 16.09 NULL NULL 19.6 9.8 53% 76.12 0.0
08 09:55 SW 17 G 30 16.09 NULL NULL 18.9 9.8 56% 76.15 0.0
08 09:35 S 17 G 28 16.09 NULL NULL 18.3 9.6 57% 76.17 0.0
08 09:15 SW 15 16.09 NULL NULL 17.6 9.6 60% 76.2 0.0
08 08:55 S 15 16.09 NULL NULL 16.9 9 60% 76.2 0.0
08 08:35 S 9 16.09 NULL NULL 16.5 9 61% 76.2 0.0
08 08:15 Vrbl 7 16.09 NULL NULL 15.9 8.6 62% 76.2 0.0
08 07:55 SW 9 16.09 NULL NULL 14.9 7.8 63% 76.2 0.0
08 07:35 S 11 14.48 NULL NULL 14.4 7.5 63% 76.2 0.0
08 07:15 S 6 16.09 NULL NULL 13.4 7.1 66% 76.2 0.0
08 06:55 Calm 14.48 NULL NULL 11.3 8.1 12.8 8 81% 76.2 0.0
08 06:35 Calm 16.09 NULL NULL 9.1 7.9 92% 76.17 0.0
08 06:15 S 6 16.09 NULL NULL 11.3 6.5 73% 76.15 0.0
08 05:55 S 6 16.09 NULL NULL 10 7 82% 76.12 0.0
08 05:35 Calm 16.09 NULL NULL 8.2 7.3 94% 76.12 0.0
08 05:15 Calm 16.09 NULL NULL 8.6 7.2 91% 76.12 0.0
08 04:55 Calm 16.09 NULL NULL 10.1 6.2 77% 76.12 0.0
08 04:35 S 6 16.09 NULL NULL 11 6.2 73% 76.12 0.0
08 03:55 S 7 16.09 NULL NULL 11.6 5.7 67% 76.12 0.0
08 03:35 S 7 16.09 NULL NULL 11.3 5.9 70% 76.12 0.0
08 03:15 S 6 16.09 NULL NULL 11.6 6 69% 76.15 0.0
08 02:55 S 7 16.09 NULL NULL 12.6 5.2 61% 76.15 0.0
08 02:35 Vrbl 7 16.09 NULL NULL 12.8 5.3 61% 76.17 0.0
08 02:15 S 7 16.09 NULL NULL 12.5 5.6 63% 76.17 0.0
08 01:55 S 7 16.09 NULL NULL 12.4 5.6 63% 76.17 0.0
08 01:35 S 7 16.09 NULL NULL 11.8 5.8 67% 76.2 0.0
08 01:15 S 6 16.09 NULL NULL 9 7.8 92% 76.2 0.0
08 00:55 Calm 16.09 NULL NULL 9.6 7.7 17.9 9.5 88% 76.2 0.0
08 00:35 Calm 16.09 NULL NULL 9.9 8 88% 76.2 0.0
08 00:15 S 6 16.09 NULL NULL 13 5.3 60% 76.2 0.0
07 23:55 S 6 16.09 NULL NULL 13.4 5.1 57% 76.2 0.0
07 23:35 S 7 16.09 NULL NULL 13.4 5.1 57% 76.2 0.0
07 23:15 S 6 16.09 NULL NULL 13.1 5.2 59% 76.2 0.0
07 22:55 S 7 16.09 NULL NULL 13.5 5.3 58% 76.23 0.0
07 22:35 S 9 16.09 NULL NULL 13.6 5.4 58% 76.23 0.0
07 22:15 S 11 16.09 NULL NULL 13.4 5.3 58% 76.2 0.0
07 21:55 SE 6 16.09 NULL NULL 12.7 6.8 68% 76.2 0.0
07 21:35 S 7 16.09 NULL NULL 13 6.8 66% 76.17 0.0
07 21:15 S 6 16.09 NULL NULL 12.9 8.5 75% 76.17 0.0
07 20:55 S 6 16.09 NULL NULL 14.9 4.5 50% 76.17 0.0
07 20:35 S 7 14.48 NULL NULL 15.2 4.4 49% 76.15 0.0
07 20:15 S 7 12.87 NULL NULL 15.4 4.7 49% 76.15 0.0
07 19:55 S 7 12.87 NULL NULL 16.4 4.1 44% 76.12 0.0
07 19:35 S 6 9.66 Haze NULL 16.9 3.5 41% 76.12 0.0
07 19:15 S 7 9.66 Haze NULL 17.5 3.3 39% 76.12 0.0
07 18:55 S 6 11.27 NULL NULL 18.3 3.4 19.6 17.6 37% 76.12 0.0
07 18:35 Vrbl 6 12.87 NULL NULL 18.6 2.6 35% 76.12 0.0
07 18:15 W 6 16.09 NULL NULL 18.7 2.3 34% 76.12 0.0
07 17:55 Vrbl 9 16.09 NULL NULL 19 2.8 34% 76.15 0.0
07 17:35 NW 6 16.09 NULL NULL 19.1 2.9 34% 76.15 0.0
07 17:15 Calm 12.87 NULL NULL 19.5 1.8 31% 76.15 0.0
07 16:55 Vrbl 6 16.09 NULL NULL 18.9 1.1 30% 76.15 0.0
07 16:35 W 7 16.09 NULL NULL 19.2 1.4 31% 76.17 0.0
07 16:15 W 13 16.09 NULL NULL 19.3 2.3 32% 76.17 0.0
07 15:15 W 13 16.09 NULL NULL 19 3.5 36% 76.2 0.0
07 14:55 W 13 16.09 NULL NULL 18.8 3.3 36% 76.2 0.0
07 14:35 SW 9 14.48 NULL NULL 18.8 3.3 36% 76.23 0.0
07 14:15 Vrbl 11 14.48 NULL NULL 18.6 2.9 35% 76.23 0.0
07 13:55 W 13 16.09 NULL NULL 18.6 3.7 37% 76.25 0.0
07 13:35 W 7 16.09 NULL NULL 17.9 2.8 37% 76.25 0.0
07 13:15 Vrbl 7 14.48 NULL NULL 17.7 3.4 39% 76.25 0.0
07 12:55 Vrbl 6 16.09 NULL NULL 17.9 2.2 17.9 8.2 35% 76.3 0.0
07 12:35 Calm 16.09 NULL NULL 17.4 1.6 35% 76.3 0.0
07 12:15 NW 11 16.09 NULL NULL 17.7 2.3 36% 76.33 0.0
07 11:55 NW 11 16.09 NULL NULL 16.9 1.5 36% 76.33 0.0
07 11:35 Vrbl 11 14.48 NULL NULL 17.2 2.5 38% 76.35 0.0
07 11:15 Calm 14.48 NULL NULL 16.5 1.6 37% 76.35 0.0
07 10:55 Vrbl 7 11.27 NULL NULL 16.5 3.3 42% 76.38 0.0
07 10:35 Calm 11.27 NULL NULL 16.2 2.9 41% 76.38 0.0
07 10:15 NE 6 12.87 NULL NULL 15.4 3.3 45% 76.38 0.0
07 09:55 E 6 16.09 NULL NULL 15.3 3.5 45% 76.38 0.0
07 09:35 E 6 16.09 NULL NULL 15 3.7 47% 76.38 0.0
07 09:15 E 9 16.09 NULL NULL 14.1 3.7 50% 76.38 0.0
07 08:55 E 9 16.09 NULL NULL 13.4 5.5 59% 76.38 0.0
07 08:35 E 13 16.09 NULL NULL 12.7 5.5 62% 76.38 0.0
07 08:15 N 7 16.09 NULL NULL 11.8 6.9 72% 76.38 0.0
07 07:55 Vrbl 6 16.09 NULL NULL 10.7 8 84% 76.35 0.0
07 07:35 N 7 16.09 NULL NULL 9.7 8.3 91% 9 76.38 0.0
07 07:15 N 6 14.48 NULL NULL 8.8 8 95% 76.35 0.0
07 06:55 N 7 12.87 NULL NULL 7.7 7.1 10.4 6.3 96% 7 76.33 0.0
07 06:35 N 7 12.87 NULL NULL 6.9 6.8 99% 6 76.33 0.0
07 06:15 Calm 11.27 NULL NULL 6.4 6.4 100% 76.3 0.0
07 05:55 Calm 12.87 NULL NULL 6.9 6.6 98% 76.3 0.0
07 05:35 NW 6 14.48 NULL NULL 7.2 6.9 98% 76.3 0.0
07 05:15 Calm 12.87 NULL NULL 7.2 7.2 100% 76.3 0.0
07 04:55 NW 6 14.48 NULL NULL 7.4 7.2 99% 76.3 0.0
07 04:35 NW 6 14.48 NULL NULL 7.6 7.3 98% 76.3 0.0
07 04:15 Calm 14.48 NULL NULL 7.9 7.4 97% 76.3 0.0
07 03:55 NW 6 16.09 NULL NULL 7.7 7.3 97% 76.28 0.0
07 03:35 N 6 16.09 NULL NULL 8.4 7.7 95% 76.28 0.0
07 03:15 Calm 16.09 NULL NULL 8.8 7.8 94% 76.25 0.0
07 02:55 N 6 16.09 NULL NULL 8.7 8 95% 76.25 0.0
07 02:35 N 6 16.09 NULL NULL 8.5 7.9 96% 76.23 0.0
07 02:15 N 6 16.09 NULL NULL 9.2 8.2 94% 76.23 0.0
Date Time (cdt) Wind (kph) Vis. (km) Weather Sky Cond. Air Dwpt Max. Min. Relative Humidity Wind Chill (°C) Heat Index (°C) altimeter (cm) sea level (mb) 1 hr 3 hr 6 hr
6 hour
Temperature (ºC) Pressure Precipitation (cm)